sensor_id;sensor_type;location;lat;lon;timestamp;pressure;altitude;pressure_sealevel;temperature;humidity
71638;BME280;59485;43.542;-5.676;2023-05-24T00:02:45;101862.25;;;16.27;nan
71638;BME280;59485;43.542;-5.676;2023-05-24T00:09:29;101889.06;;;16.27;nan
71638;BME280;59485;43.542;-5.676;2023-05-24T00:12:16;101900.38;;;16.32;nan
71638;BME280;59485;43.542;-5.676;2023-05-24T00:14:45;101883.06;;;16.23;nan
71638;BME280;59485;43.542;-5.676;2023-05-24T00:17:19;101847.13;;;16.02;nan
71638;BME280;59485;43.542;-5.676;2023-05-24T00:19:53;101891.19;;;16.25;nan
71638;BME280;59485;43.542;-5.676;2023-05-24T00:22:21;101866.50;;;16.02;nan
71638;BME280;59485;43.542;-5.676;2023-05-24T00:24:49;101870.13;;;16.02;nan
71638;BME280;59485;43.542;-5.676;2023-05-24T00:27:18;101863.44;;;15.90;nan
71638;BME280;59485;43.542;-5.676;2023-05-24T00:29:44;101869.22;;;15.95;nan
71638;BME280;59485;43.542;-5.676;2023-05-24T00:32:19;101871.97;;;15.95;nan
71638;BME280;59485;43.542;-5.676;2023-05-24T00:34:48;101884.94;;;15.95;nan
71638;BME280;59485;43.542;-5.676;2023-05-24T00:37:13;101899.91;;;16.00;nan
71638;BME280;59485;43.542;-5.676;2023-05-24T00:39:44;101902.00;;;15.98;nan
71638;BME280;59485;43.542;-5.676;2023-05-24T00:42:14;101875.28;;;15.84;nan
71638;BME280;59485;43.542;-5.676;2023-05-24T00:44:48;101881.66;;;15.85;nan
71638;BME280;59485;43.542;-5.676;2023-05-24T00:47:16;101900.69;;;15.94;nan
71638;BME280;59485;43.542;-5.676;2023-05-24T00:49:42;101895.34;;;15.93;nan
71638;BME280;59485;43.542;-5.676;2023-05-24T00:52:10;101864.16;;;15.77;nan
71638;BME280;59485;43.542;-5.676;2023-05-24T00:54:39;101884.03;;;15.88;nan
71638;BME280;59485;43.542;-5.676;2023-05-24T00:57:07;101854.34;;;15.75;nan
71638;BME280;59485;43.542;-5.676;2023-05-24T00:59:51;101859.47;;;15.78;nan
71638;BME280;59485;43.542;-5.676;2023-05-24T01:02:17;101869.53;;;15.86;nan
71638;BME280;59485;43.542;-5.676;2023-05-24T01:04:42;101882.59;;;15.92;nan
71638;BME280;59485;43.542;-5.676;2023-05-24T01:07:17;101905.13;;;16.10;nan
71638;BME280;59485;43.542;-5.676;2023-05-24T01:10:10;101900.22;;;16.12;nan
71638;BME280;59485;43.542;-5.676;2023-05-24T01:12:55;101895.69;;;16.04;nan
71638;BME280;59485;43.542;-5.676;2023-05-24T01:15:50;101886.13;;;16.07;nan
71638;BME280;59485;43.542;-5.676;2023-05-24T01:21:04;101852.38;;;15.90;nan
71638;BME280;59485;43.542;-5.676;2023-05-24T01:26:19;101864.59;;;16.02;nan
71638;BME280;59485;43.542;-5.676;2023-05-24T01:28:55;101855.91;;;16.05;nan
71638;BME280;59485;43.542;-5.676;2023-05-24T01:31:21;101846.56;;;16.06;nan
71638;BME280;59485;43.542;-5.676;2023-05-24T01:33:47;101853.84;;;16.14;nan
71638;BME280;59485;43.542;-5.676;2023-05-24T01:36:12;101852.59;;;16.17;nan
71638;BME280;59485;43.542;-5.676;2023-05-24T01:38:38;101867.53;;;16.22;nan
71638;BME280;59485;43.542;-5.676;2023-05-24T01:41:35;101849.63;;;16.18;nan
71638;BME280;59485;43.542;-5.676;2023-05-24T01:45:07;101874.44;;;16.33;nan
71638;BME280;59485;43.542;-5.676;2023-05-24T01:50:04;101852.63;;;16.23;nan
71638;BME280;59485;43.542;-5.676;2023-05-24T01:52:32;101866.09;;;16.26;nan
71638;BME280;59485;43.542;-5.676;2023-05-24T01:55:00;101876.81;;;16.36;nan
71638;BME280;59485;43.542;-5.676;2023-05-24T01:57:27;101857.34;;;16.29;nan
71638;BME280;59485;43.542;-5.676;2023-05-24T01:59:54;101839.63;;;16.17;nan
71638;BME280;59485;43.542;-5.676;2023-05-24T02:02:21;101861.47;;;16.40;nan
71638;BME280;59485;43.542;-5.676;2023-05-24T02:04:47;101825.59;;;16.19;nan
71638;BME280;59485;43.542;-5.676;2023-05-24T02:07:16;101859.19;;;16.43;nan
71638;BME280;59485;43.542;-5.676;2023-05-24T02:09:51;101803.59;;;16.10;nan
71638;BME280;59485;43.542;-5.676;2023-05-24T02:12:22;101800.19;;;16.08;nan
71638;BME280;59485;43.542;-5.676;2023-05-24T02:14:51;101832.91;;;16.33;nan
71638;BME280;59485;43.542;-5.676;2023-05-24T02:17:31;101799.38;;;16.14;nan
71638;BME280;59485;43.542;-5.676;2023-05-24T02:20:16;101841.72;;;16.43;nan
71638;BME280;59485;43.542;-5.676;2023-05-24T02:23:00;101816.00;;;16.21;nan
71638;BME280;59485;43.542;-5.676;2023-05-24T02:25:26;101837.63;;;16.39;nan
71638;BME280;59485;43.542;-5.676;2023-05-24T02:27:52;101816.09;;;16.28;nan
71638;BME280;59485;43.542;-5.676;2023-05-24T02:30:31;101790.59;;;16.11;nan
71638;BME280;59485;43.542;-5.676;2023-05-24T02:33:03;101822.91;;;16.32;nan
71638;BME280;59485;43.542;-5.676;2023-05-24T02:35:36;101804.09;;;16.21;nan
71638;BME280;59485;43.542;-5.676;2023-05-24T02:38:07;101787.00;;;16.10;nan
71638;BME280;59485;43.542;-5.676;2023-05-24T02:41:01;101818.00;;;16.27;nan
71638;BME280;59485;43.542;-5.676;2023-05-24T02:54:53;101819.44;;;15.95;nan
71638;BME280;59485;43.542;-5.676;2023-05-24T02:57:35;101787.88;;;15.83;nan
71638;BME280;59485;43.542;-5.676;2023-05-24T03:00:07;101803.13;;;15.79;nan
71638;BME280;59485;43.542;-5.676;2023-05-24T03:02:38;101790.69;;;15.68;nan
71638;BME280;59485;43.542;-5.676;2023-05-24T03:05:20;101771.44;;;15.54;nan
71638;BME280;59485;43.542;-5.676;2023-05-24T03:07:54;101791.69;;;15.61;nan
71638;BME280;59485;43.542;-5.676;2023-05-24T03:10:22;101822.88;;;15.76;nan
71638;BME280;59485;43.542;-5.676;2023-05-24T03:12:48;101805.72;;;15.59;nan
71638;BME280;59485;43.542;-5.676;2023-05-24T03:15:14;101818.94;;;15.64;nan
71638;BME280;59485;43.542;-5.676;2023-05-24T03:17:42;101804.09;;;15.50;nan
71638;BME280;59485;43.542;-5.676;2023-05-24T03:20:14;101812.91;;;15.54;nan
71638;BME280;59485;43.542;-5.676;2023-05-24T03:22:42;101797.59;;;15.36;nan
71638;BME280;59485;43.542;-5.676;2023-05-24T03:25:07;101796.56;;;15.37;nan
71638;BME280;59485;43.542;-5.676;2023-05-24T03:37:02;101761.41;;;15.10;nan
71638;BME280;59485;43.542;-5.676;2023-05-24T03:39:36;101792.22;;;15.28;nan
71638;BME280;59485;43.542;-5.676;2023-05-24T03:42:08;101806.28;;;15.33;nan
71638;BME280;59485;43.542;-5.676;2023-05-24T03:44:34;101796.94;;;15.34;nan
71638;BME280;59485;43.542;-5.676;2023-05-24T03:47:05;101767.53;;;15.27;nan
71638;BME280;59485;43.542;-5.676;2023-05-24T03:49:40;101798.53;;;15.44;nan
71638;BME280;59485;43.542;-5.676;2023-05-24T03:55:09;101834.69;;;15.63;nan
71638;BME280;59485;43.542;-5.676;2023-05-24T03:57:35;101807.91;;;15.49;nan
71638;BME280;59485;43.542;-5.676;2023-05-24T04:00:12;101835.41;;;15.72;nan
71638;BME280;59485;43.542;-5.676;2023-05-24T04:02:46;101834.34;;;15.73;nan
71638;BME280;59485;43.542;-5.676;2023-05-24T04:05:17;101832.03;;;15.76;nan
71638;BME280;59485;43.542;-5.676;2023-05-24T04:07:49;101814.91;;;15.66;nan
71638;BME280;59485;43.542;-5.676;2023-05-24T04:10:20;101799.81;;;15.62;nan
71638;BME280;59485;43.542;-5.676;2023-05-24T04:12:56;101811.97;;;15.68;nan
71638;BME280;59485;43.542;-5.676;2023-05-24T04:15:27;101796.00;;;15.63;nan
71638;BME280;59485;43.542;-5.676;2023-05-24T04:55:53;101832.22;;;15.75;nan
71638;BME280;59485;43.542;-5.676;2023-05-24T05:01:43;101824.16;;;15.73;nan
71638;BME280;59485;43.542;-5.676;2023-05-24T05:04:21;101847.63;;;15.84;nan
71638;BME280;59485;43.542;-5.676;2023-05-24T05:06:55;101787.84;;;15.55;nan
71638;BME280;59485;43.542;-5.676;2023-05-24T05:16:31;101818.09;;;15.63;nan
71638;BME280;59485;43.542;-5.676;2023-05-24T05:25:49;101850.47;;;15.91;nan
71638;BME280;59485;43.542;-5.676;2023-05-24T05:28:15;101851.97;;;15.93;nan
71638;BME280;59485;43.542;-5.676;2023-05-24T05:30:41;101836.38;;;15.86;nan
71638;BME280;59485;43.542;-5.676;2023-05-24T05:33:06;101857.09;;;15.96;nan
71638;BME280;59485;43.542;-5.676;2023-05-24T05:35:32;101864.34;;;15.97;nan
71638;BME280;59485;43.542;-5.676;2023-05-24T05:37:57;101844.94;;;15.91;nan
71638;BME280;59485;43.542;-5.676;2023-05-24T05:40:23;101852.44;;;15.97;nan
71638;BME280;59485;43.542;-5.676;2023-05-24T05:42:48;101864.34;;;15.97;nan
71638;BME280;59485;43.542;-5.676;2023-05-24T05:45:14;101859.19;;;15.94;nan
71638;BME280;59485;43.542;-5.676;2023-05-24T05:47:40;101868.34;;;15.95;nan
71638;BME280;59485;43.542;-5.676;2023-05-24T05:50:12;101867.59;;;16.01;nan
71638;BME280;59485;43.542;-5.676;2023-05-24T05:52:38;101865.19;;;15.98;nan
71638;BME280;59485;43.542;-5.676;2023-05-24T05:55:04;101860.53;;;15.98;nan
71638;BME280;59485;43.542;-5.676;2023-05-24T05:57:30;101862.63;;;15.96;nan
71638;BME280;59485;43.542;-5.676;2023-05-24T05:59:55;101862.63;;;15.96;nan
71638;BME280;59485;43.542;-5.676;2023-05-24T06:02:20;101864.34;;;15.97;nan
71638;BME280;59485;43.542;-5.676;2023-05-24T06:04:48;101860.53;;;15.98;nan
71638;BME280;59485;43.542;-5.676;2023-05-24T06:07:13;101860.78;;;16.03;nan
71638;BME280;59485;43.542;-5.676;2023-05-24T06:09:39;101866.38;;;16.10;nan
71638;BME280;59485;43.542;-5.676;2023-05-24T06:12:05;101857.41;;;16.08;nan
71638;BME280;59485;43.542;-5.676;2023-05-24T06:14:31;101857.00;;;16.11;nan
71638;BME280;59485;43.542;-5.676;2023-05-24T06:16:58;101869.19;;;16.17;nan
71638;BME280;59485;43.542;-5.676;2023-05-24T06:19:24;101867.09;;;16.19;nan
71638;BME280;59485;43.542;-5.676;2023-05-24T06:21:49;101872.19;;;16.22;nan
71638;BME280;59485;43.542;-5.676;2023-05-24T06:24:16;101872.66;;;16.25;nan
71638;BME280;59485;43.542;-5.676;2023-05-24T06:26:48;101873.53;;;16.26;nan
71638;BME280;59485;43.542;-5.676;2023-05-24T06:29:14;101868.38;;;16.23;nan
71638;BME280;59485;43.542;-5.676;2023-05-24T06:31:39;101870.56;;;16.27;nan
71638;BME280;59485;43.542;-5.676;2023-05-24T06:34:06;101883.19;;;16.36;nan
71638;BME280;59485;43.542;-5.676;2023-05-24T06:36:31;101880.00;;;16.39;nan
71638;BME280;59485;43.542;-5.676;2023-05-24T06:39:08;101889.44;;;16.45;nan
71638;BME280;59485;43.542;-5.676;2023-05-24T06:41:34;101883.66;;;16.46;nan
71638;BME280;59485;43.542;-5.676;2023-05-24T06:44:00;101888.16;;;16.47;nan
71638;BME280;59485;43.542;-5.676;2023-05-24T06:46:25;101886.53;;;16.60;nan
71638;BME280;59485;43.542;-5.676;2023-05-24T06:48:51;101878.22;;;16.60;nan
71638;BME280;59485;43.542;-5.676;2023-05-24T06:51:16;101887.06;;;16.70;nan
71638;BME280;59485;43.542;-5.676;2023-05-24T06:53:42;101883.25;;;16.71;nan
71638;BME280;59485;43.542;-5.676;2023-05-24T06:56:07;101882.81;;;16.74;nan
71638;BME280;59485;43.542;-5.676;2023-05-24T06:58:33;101884.16;;;16.84;nan
71638;BME280;59485;43.542;-5.676;2023-05-24T07:00:59;101886.56;;;16.94;nan
71638;BME280;59485;43.542;-5.676;2023-05-24T07:03:25;101879.28;;;16.86;nan
71638;BME280;59485;43.542;-5.676;2023-05-24T07:05:51;101881.03;;;16.94;nan
71638;BME280;59485;43.542;-5.676;2023-05-24T07:08:16;101884.25;;;16.98;nan
71638;BME280;59485;43.542;-5.676;2023-05-24T07:10:42;101897.53;;;17.09;nan
71638;BME280;59485;43.542;-5.676;2023-05-24T07:13:09;101882.16;;;17.06;nan
71638;BME280;59485;43.542;-5.676;2023-05-24T07:15:40;101877.50;;;17.13;nan
71638;BME280;59485;43.542;-5.676;2023-05-24T07:18:06;101886.25;;;17.17;nan
71638;BME280;59485;43.542;-5.676;2023-05-24T07:20:32;101884.34;;;17.17;nan
71638;BME280;59485;43.542;-5.676;2023-05-24T07:22:58;101885.03;;;17.26;nan
71638;BME280;59485;43.542;-5.676;2023-05-24T07:25:24;101896.31;;;17.31;nan
71638;BME280;59485;43.542;-5.676;2023-05-24T07:27:50;101897.19;;;17.32;nan
71638;BME280;59485;43.542;-5.676;2023-05-24T07:30:15;101904.25;;;17.34;nan
71638;BME280;59485;43.542;-5.676;2023-05-24T07:32:41;101906.16;;;17.40;nan
71638;BME280;59485;43.542;-5.676;2023-05-24T07:35:07;101907.22;;;17.39;nan
71638;BME280;59485;43.542;-5.676;2023-05-24T07:37:33;101903.88;;;17.50;nan
71638;BME280;59485;43.542;-5.676;2023-05-24T07:39:58;101908.56;;;17.50;nan
71638;BME280;59485;43.542;-5.676;2023-05-24T07:42:24;101912.09;;;17.31;nan
71638;BME280;59485;43.542;-5.676;2023-05-24T07:44:50;101929.00;;;17.42;nan
71638;BME280;59485;43.542;-5.676;2023-05-24T07:47:15;101919.81;;;17.35;nan
71638;BME280;59485;43.542;-5.676;2023-05-24T07:49:41;101926.25;;;17.49;nan
71638;BME280;59485;43.542;-5.676;2023-05-24T07:52:06;101928.16;;;17.48;nan
71638;BME280;59485;43.542;-5.676;2023-05-24T07:54:32;101919.34;;;17.32;nan
71638;BME280;59485;43.542;-5.676;2023-05-24T07:56:58;101935.16;;;17.38;nan
71638;BME280;59485;43.542;-5.676;2023-05-24T07:59:23;101935.59;;;17.35;nan
71638;BME280;59485;43.542;-5.676;2023-05-24T08:01:49;101937.72;;;17.46;nan
71638;BME280;59485;43.542;-5.676;2023-05-24T08:04:15;101946.28;;;17.44;nan
71638;BME280;59485;43.542;-5.676;2023-05-24T08:06:42;101943.94;;;17.48;nan
71638;BME280;59485;43.542;-5.676;2023-05-24T08:09:07;101939.03;;;17.43;nan
71638;BME280;59485;43.542;-5.676;2023-05-24T08:11:33;101950.34;;;17.48;nan
71638;BME280;59485;43.542;-5.676;2023-05-24T08:13:59;101953.59;;;17.58;nan
71638;BME280;59485;43.542;-5.676;2023-05-24T08:16:24;101955.75;;;17.63;nan
71638;BME280;59485;43.542;-5.676;2023-05-24T08:18:50;101964.72;;;17.65;nan
71638;BME280;59485;43.542;-5.676;2023-05-24T08:21:15;101958.13;;;17.66;nan
71638;BME280;59485;43.542;-5.676;2023-05-24T08:23:42;101966.25;;;17.74;nan
71638;BME280;59485;43.542;-5.676;2023-05-24T08:26:07;101969.00;;;17.68;nan
71638;BME280;59485;43.542;-5.676;2023-05-24T08:28:33;101971.59;;;17.76;nan
71638;BME280;59485;43.542;-5.676;2023-05-24T08:30:58;101969.88;;;17.75;nan
71638;BME280;59485;43.542;-5.676;2023-05-24T08:33:24;101973.97;;;17.79;nan
71638;BME280;59485;43.542;-5.676;2023-05-24T08:35:50;101970.34;;;17.85;nan
71638;BME280;59485;43.542;-5.676;2023-05-24T08:38:16;101984.47;;;17.96;nan
71638;BME280;59485;43.542;-5.676;2023-05-24T08:40:41;101975.91;;;17.91;nan
71638;BME280;59485;43.542;-5.676;2023-05-24T08:43:07;101973.56;;;17.95;nan
71638;BME280;59485;43.542;-5.676;2023-05-24T08:45:42;101971.84;;;17.94;nan
71638;BME280;59485;43.542;-5.676;2023-05-24T08:48:08;101979.13;;;18.02;nan
71638;BME280;59485;43.542;-5.676;2023-05-24T08:50:34;101981.94;;;18.15;nan
71638;BME280;59485;43.542;-5.676;2023-05-24T08:53:01;101984.28;;;18.11;nan
71638;BME280;59485;43.542;-5.676;2023-05-24T08:55:30;101978.28;;;18.01;nan
71638;BME280;59485;43.542;-5.676;2023-05-24T08:57:55;101991.72;;;18.04;nan
71638;BME280;59485;43.542;-5.676;2023-05-24T09:00:21;101977.59;;;17.92;nan
71638;BME280;59485;43.542;-5.676;2023-05-24T09:02:48;101982.97;;;17.94;nan
71638;BME280;59485;43.542;-5.676;2023-05-24T09:05:15;101979.38;;;18.07;nan
71638;BME280;59485;43.542;-5.676;2023-05-24T09:07:47;101988.72;;;17.92;nan
71638;BME280;59485;43.542;-5.676;2023-05-24T09:10:13;101978.50;;;18.06;nan
71638;BME280;59485;43.542;-5.676;2023-05-24T09:12:44;101982.56;;;18.04;nan
71638;BME280;59485;43.542;-5.676;2023-05-24T09:15:12;101986.78;;;17.99;nan
71638;BME280;59485;43.542;-5.676;2023-05-24T09:17:38;101988.56;;;18.07;nan
71638;BME280;59485;43.542;-5.676;2023-05-24T09:20:08;102000.06;;;17.97;nan
71638;BME280;59485;43.542;-5.676;2023-05-24T09:22:35;101996.63;;;17.89;nan
71638;BME280;59485;43.542;-5.676;2023-05-24T09:25:04;102002.38;;;17.94;nan
71638;BME280;59485;43.542;-5.676;2023-05-24T09:27:34;101998.53;;;17.95;nan
71638;BME280;59485;43.542;-5.676;2023-05-24T09:30:01;102004.47;;;17.85;nan
71638;BME280;59485;43.542;-5.676;2023-05-24T09:32:30;101995.50;;;17.83;nan
71638;BME280;59485;43.542;-5.676;2023-05-24T09:34:57;101988.91;;;17.91;nan
71638;BME280;59485;43.542;-5.676;2023-05-24T09:37:24;101985.06;;;17.85;nan
71638;BME280;59485;43.542;-5.676;2023-05-24T09:39:52;101987.47;;;18.08;nan
71638;BME280;59485;43.542;-5.676;2023-05-24T09:42:24;101986.19;;;18.17;nan
71638;BME280;59485;43.542;-5.676;2023-05-24T09:45:05;101977.25;;;18.28;nan
71638;BME280;59485;43.542;-5.676;2023-05-24T09:47:35;101968.72;;;18.36;nan
71638;BME280;59485;43.542;-5.676;2023-05-24T09:50:01;101967.22;;;18.47;nan
71638;BME280;59485;43.542;-5.676;2023-05-24T09:52:27;101957.88;;;18.68;nan
71638;BME280;59485;43.542;-5.676;2023-05-24T09:54:53;101966.19;;;18.74;nan
71638;BME280;59485;43.542;-5.676;2023-05-24T09:57:19;101959.13;;;18.72;nan
71638;BME280;59485;43.542;-5.676;2023-05-24T09:59:50;101958.66;;;18.88;nan
71638;BME280;59485;43.542;-5.676;2023-05-24T10:02:17;101959.75;;;18.94;nan
71638;BME280;59485;43.542;-5.676;2023-05-24T10:04:45;101955.00;;;19.07;nan
71638;BME280;59485;43.542;-5.676;2023-05-24T10:07:11;101965.50;;;19.05;nan
71638;BME280;59485;43.542;-5.676;2023-05-24T10:09:37;101958.00;;;19.13;nan
71638;BME280;59485;43.542;-5.676;2023-05-24T10:12:07;101955.88;;;19.01;nan
71638;BME280;59485;43.542;-5.676;2023-05-24T10:14:37;101956.00;;;19.26;nan
71638;BME280;59485;43.542;-5.676;2023-05-24T10:17:06;101958.75;;;19.33;nan
71638;BME280;59485;43.542;-5.676;2023-05-24T10:19:36;101951.53;;;19.32;nan
71638;BME280;59485;43.542;-5.676;2023-05-24T10:22:06;101952.38;;;19.32;nan
71638;BME280;59485;43.542;-5.676;2023-05-24T10:24:35;101953.44;;;19.31;nan
71638;BME280;59485;43.542;-5.676;2023-05-24T10:27:06;101955.38;;;19.31;nan
71638;BME280;59485;43.542;-5.676;2023-05-24T10:32:13;101960.47;;;19.34;nan
71638;BME280;59485;43.542;-5.676;2023-05-24T10:34:40;101966.50;;;19.24;nan
71638;BME280;59485;43.542;-5.676;2023-05-24T10:37:07;101964.81;;;19.23;nan
71638;BME280;59485;43.542;-5.676;2023-05-24T10:39:34;101969.75;;;19.15;nan
71638;BME280;59485;43.542;-5.676;2023-05-24T10:42:05;101969.09;;;19.19;nan
71638;BME280;59485;43.542;-5.676;2023-05-24T10:44:32;101959.72;;;19.00;nan
71638;BME280;59485;43.542;-5.676;2023-05-24T10:47:13;101960.97;;;19.18;nan
71638;BME280;59485;43.542;-5.676;2023-05-24T10:49:50;101966.59;;;18.91;nan
71638;BME280;59485;43.542;-5.676;2023-05-24T10:52:17;101965.75;;;18.78;nan
71638;BME280;59485;43.542;-5.676;2023-05-24T10:55:18;101977.06;;;18.83;nan
71638;BME280;59485;43.542;-5.676;2023-05-24T10:57:44;101979.03;;;18.69;nan
71638;BME280;59485;43.542;-5.676;2023-05-24T11:02:50;101977.06;;;18.56;nan
71638;BME280;59485;43.542;-5.676;2023-05-24T11:05:16;101986.22;;;18.30;nan
71638;BME280;59485;43.542;-5.676;2023-05-24T11:07:43;101997.13;;;18.38;nan
71638;BME280;59485;43.542;-5.676;2023-05-24T11:10:13;102001.38;;;18.34;nan
71638;BME280;59485;43.542;-5.676;2023-05-24T11:12:39;102008.84;;;18.27;nan
71638;BME280;59485;43.542;-5.676;2023-05-24T11:15:08;102010.56;;;18.35;nan
71638;BME280;59485;43.542;-5.676;2023-05-24T11:20:37;101996.28;;;18.31;nan
71638;BME280;59485;43.542;-5.676;2023-05-24T11:23:03;102003.75;;;18.24;nan
71638;BME280;59485;43.542;-5.676;2023-05-24T11:25:29;101991.56;;;18.32;nan
71638;BME280;59485;43.542;-5.676;2023-05-24T11:27:57;101993.06;;;18.48;nan
71638;BME280;59485;43.542;-5.676;2023-05-24T11:30:23;101998.63;;;18.54;nan
71638;BME280;59485;43.542;-5.676;2023-05-24T11:32:50;101989.69;;;18.65;nan
71638;BME280;59485;43.542;-5.676;2023-05-24T11:35:18;101994.59;;;18.63;nan
71638;BME280;59485;43.542;-5.676;2023-05-24T11:37:43;101979.88;;;18.76;nan
71638;BME280;59485;43.542;-5.676;2023-05-24T11:40:10;101986.06;;;18.78;nan
71638;BME280;59485;43.542;-5.676;2023-05-24T11:42:36;101985.84;;;18.73;nan
71638;BME280;59485;43.542;-5.676;2023-05-24T11:45:06;101973.88;;;18.72;nan
71638;BME280;59485;43.542;-5.676;2023-05-24T11:47:37;101973.44;;;18.82;nan
71638;BME280;59485;43.542;-5.676;2023-05-24T11:50:03;101974.94;;;18.85;nan
71638;BME280;59485;43.542;-5.676;2023-05-24T11:52:29;101978.13;;;18.88;nan
71638;BME280;59485;43.542;-5.676;2023-05-24T11:54:58;101978.97;;;18.89;nan
71638;BME280;59485;43.542;-5.676;2023-05-24T11:57:28;101983.06;;;18.86;nan
71638;BME280;59485;43.542;-5.676;2023-05-24T11:59:55;101987.09;;;18.90;nan
71638;BME280;59485;43.542;-5.676;2023-05-24T12:02:22;101978.59;;;18.79;nan
71638;BME280;59485;43.542;-5.676;2023-05-24T12:04:48;101967.88;;;18.82;nan
71638;BME280;59485;43.542;-5.676;2023-05-24T12:07:13;101971.75;;;18.88;nan
71638;BME280;59485;43.542;-5.676;2023-05-24T12:09:40;101975.56;;;18.93;nan
71638;BME280;59485;43.542;-5.676;2023-05-24T12:12:06;101964.88;;;18.90;nan
71638;BME280;59485;43.542;-5.676;2023-05-24T12:14:32;101971.69;;;19.01;nan
71638;BME280;59485;43.542;-5.676;2023-05-24T12:16:58;101968.72;;;19.02;nan
71638;BME280;59485;43.542;-5.676;2023-05-24T12:19:29;101969.53;;;19.09;nan
71638;BME280;59485;43.542;-5.676;2023-05-24T12:21:59;101962.31;;;18.82;nan
71638;BME280;59485;43.542;-5.676;2023-05-24T12:24:25;101965.50;;;18.92;nan
71638;BME280;59485;43.542;-5.676;2023-05-24T12:26:56;101971.06;;;19.05;nan
71638;BME280;59485;43.542;-5.676;2023-05-24T12:29:22;101966.13;;;19.01;nan
71638;BME280;59485;43.542;-5.676;2023-05-24T12:31:48;101964.63;;;19.11;nan
71638;BME280;59485;43.542;-5.676;2023-05-24T12:34:18;101958.78;;;19.26;nan
71638;BME280;59485;43.542;-5.676;2023-05-24T12:36:45;101960.69;;;19.39;nan
71638;BME280;59485;43.542;-5.676;2023-05-24T12:39:24;101957.88;;;19.52;nan
71638;BME280;59485;43.542;-5.676;2023-05-24T12:42:00;101952.78;;;19.36;nan
71638;BME280;59485;43.542;-5.676;2023-05-24T12:44:30;101951.91;;;19.35;nan
71638;BME280;59485;43.542;-5.676;2023-05-24T12:46:57;101945.94;;;19.38;nan
71638;BME280;59485;43.542;-5.676;2023-05-24T12:49:24;101953.19;;;19.33;nan
71638;BME280;59485;43.542;-5.676;2023-05-24T12:51:50;101950.66;;;19.25;nan
71638;BME280;59485;43.542;-5.676;2023-05-24T12:54:21;101951.44;;;18.87;nan
71638;BME280;59485;43.542;-5.676;2023-05-24T12:56:47;101962.56;;;18.67;nan
71638;BME280;59485;43.542;-5.676;2023-05-24T12:59:13;101970.44;;;18.90;nan
71638;BME280;59485;43.542;-5.676;2023-05-24T13:01:39;101962.72;;;19.05;nan
71638;BME280;59485;43.542;-5.676;2023-05-24T13:04:05;101968.72;;;19.02;nan
71638;BME280;59485;43.542;-5.676;2023-05-24T13:06:30;101962.66;;;19.19;nan
71638;BME280;59485;43.542;-5.676;2023-05-24T13:08:56;101967.81;;;19.22;nan
71638;BME280;59485;43.542;-5.676;2023-05-24T13:11:22;101966.50;;;19.24;nan
71638;BME280;59485;43.542;-5.676;2023-05-24T13:13:50;101968.22;;;19.32;nan
71638;BME280;59485;43.542;-5.676;2023-05-24T13:16:15;101957.94;;;19.32;nan
71638;BME280;59485;43.542;-5.676;2023-05-24T13:18:41;101951.75;;;19.24;nan
71638;BME280;59485;43.542;-5.676;2023-05-24T13:21:06;101957.53;;;19.16;nan
71638;BME280;59485;43.542;-5.676;2023-05-24T13:23:33;101962.25;;;19.22;nan
71638;BME280;59485;43.542;-5.676;2023-05-24T13:26:01;101937.00;;;19.17;nan
71638;BME280;59485;43.542;-5.676;2023-05-24T13:28:29;101954.81;;;19.02;nan
71638;BME280;59485;43.542;-5.676;2023-05-24T13:30:54;101945.63;;;19.02;nan
71638;BME280;59485;43.542;-5.676;2023-05-24T13:33:20;101955.44;;;19.11;nan
71638;BME280;59485;43.542;-5.676;2023-05-24T13:35:45;101951.78;;;19.10;nan
71638;BME280;59485;43.542;-5.676;2023-05-24T13:38:11;101952.03;;;18.89;nan
71638;BME280;59485;43.542;-5.676;2023-05-24T13:40:38;101947.13;;;18.91;nan
71638;BME280;59485;43.542;-5.676;2023-05-24T13:43:04;101964.66;;;18.92;nan
71638;BME280;59485;43.542;-5.676;2023-05-24T13:45:29;101953.34;;;18.93;nan
71638;BME280;59485;43.542;-5.676;2023-05-24T13:47:57;101957.63;;;18.96;nan
71638;BME280;59485;43.542;-5.676;2023-05-24T13:50:29;101948.63;;;18.81;nan
71638;BME280;59485;43.542;-5.676;2023-05-24T13:52:57;101961.25;;;18.96;nan
71638;BME280;59485;43.542;-5.676;2023-05-24T13:55:24;101962.06;;;19.10;nan
71638;BME280;59485;43.542;-5.676;2023-05-24T13:57:50;101949.00;;;19.10;nan
71638;BME280;59485;43.542;-5.676;2023-05-24T14:00:16;101949.13;;;19.35;nan
71638;BME280;59485;43.542;-5.676;2023-05-24T14:02:42;101958.63;;;19.15;nan
71638;BME280;59485;43.542;-5.676;2023-05-24T14:05:08;101949.66;;;19.13;nan
71638;BME280;59485;43.542;-5.676;2023-05-24T14:07:33;101948.09;;;19.30;nan
71638;BME280;59485;43.542;-5.676;2023-05-24T14:09:59;101941.03;;;19.27;nan
71638;BME280;59485;43.542;-5.676;2023-05-24T14:12:25;101940.41;;;19.32;nan
71638;BME280;59485;43.542;-5.676;2023-05-24T14:14:51;101943.22;;;19.19;nan
71638;BME280;59485;43.542;-5.676;2023-05-24T14:17:17;101949.59;;;19.32;nan
71638;BME280;59485;43.542;-5.676;2023-05-24T14:19:42;101934.44;;;19.22;nan
71638;BME280;59485;43.542;-5.676;2023-05-24T14:22:08;101944.34;;;18.91;nan
71638;BME280;59485;43.542;-5.676;2023-05-24T14:24:33;101930.88;;;18.88;nan
71638;BME280;59485;43.542;-5.676;2023-05-24T14:26:59;101918.69;;;19.02;nan
71638;BME280;59485;43.542;-5.676;2023-05-24T14:29:25;101941.56;;;19.04;nan
71638;BME280;59485;43.542;-5.676;2023-05-24T14:31:51;101943.03;;;19.07;nan
71638;BME280;59485;43.542;-5.676;2023-05-24T14:34:16;101936.63;;;19.00;nan
71638;BME280;59485;43.542;-5.676;2023-05-24T14:36:44;101945.56;;;19.15;nan
71638;BME280;59485;43.542;-5.676;2023-05-24T14:39:12;101914.19;;;19.01;nan
71638;BME280;59485;43.542;-5.676;2023-05-24T14:41:37;101919.09;;;18.99;nan
71638;BME280;59485;43.542;-5.676;2023-05-24T14:44:03;101938.09;;;19.16;nan
71638;BME280;59485;43.542;-5.676;2023-05-24T14:46:28;101902.44;;;18.99;nan
71638;BME280;59485;43.542;-5.676;2023-05-24T14:48:54;101911.81;;;19.11;nan